LPR6 EPKX-EPKX
Flight info
| Callsign | LPR6 |
|---|---|
| Flight time | 0h 22m |
| Altitude | 1500 |
| Route | DCT |
| Aircraft | EC35/L-VGD/A |
Departure
| Time | 2026-04-15 18:29 |
|---|---|
| Airport | Kokotowie LPR HEMS Heliport (EPKX) |
Arrival
| Time | 2026-04-15 18:51 |
|---|---|
| Airport | Kokotowie LPR HEMS Heliport (EPKX) |
| Time | Latitude | Longitude | Altitude | Speed | Heading |
|---|---|---|---|---|---|
| 2026-04-15 18:25 | 50.02231 | 20.06999 | 650 ft | 0 kts | 150° |
| 2026-04-15 18:25 | 50.02225 | 20.07004 | 654 ft | 1 kts | 358° |
| 2026-04-15 18:26 | 50.02225 | 20.07005 | 649 ft | 0 kts | 332° |
| 2026-04-15 18:27 | 50.02240 | 20.06992 | 660 ft | 8 kts | 336° |
| 2026-04-15 18:27 | 50.02280 | 20.07029 | 657 ft | 2 kts | 208° |
| 2026-04-15 18:27 | 50.02300 | 20.07082 | 757 ft | 12 kts | 243° |
| 2026-04-15 18:27 | 50.02364 | 20.06909 | 987 ft | 54 kts | 291° |
| 2026-04-15 18:28 | 50.02636 | 20.06173 | 1017 ft | 93 kts | 294° |
| 2026-04-15 18:28 | 50.02945 | 20.05269 | 1046 ft | 102 kts | 292° |
| 2026-04-15 18:28 | 50.03225 | 20.04267 | 1110 ft | 101 kts | 290° |
| 2026-04-15 18:28 | 50.03504 | 20.03235 | 1216 ft | 103 kts | 290° |
| 2026-04-15 18:29 | 50.03777 | 20.02215 | 1312 ft | 103 kts | 290° |
| 2026-04-15 18:29 | 50.04054 | 20.01186 | 1421 ft | 103 kts | 291° |
| 2026-04-15 18:29 | 50.04344 | 20.00103 | 1480 ft | 112 kts | 291° |
| 2026-04-15 18:29 | 50.04640 | 19.98974 | 1498 ft | 112 kts | 290° |
| 2026-04-15 18:30 | 50.04927 | 19.97852 | 1496 ft | 112 kts | 290° |
| 2026-04-15 18:30 | 50.05220 | 19.96708 | 1494 ft | 115 kts | 290° |
| 2026-04-15 18:30 | 50.05511 | 19.95564 | 1497 ft | 113 kts | 290° |
| 2026-04-15 18:30 | 50.05804 | 19.94421 | 1504 ft | 114 kts | 290° |
| 2026-04-15 18:31 | 50.06095 | 19.93281 | 1502 ft | 113 kts | 290° |
| 2026-04-15 18:31 | 50.06387 | 19.92137 | 1504 ft | 114 kts | 290° |
| 2026-04-15 18:31 | 50.06678 | 19.90999 | 1503 ft | 112 kts | 290° |
| 2026-04-15 18:31 | 50.06977 | 19.89837 | 1503 ft | 120 kts | 290° |
| 2026-04-15 18:32 | 50.07288 | 19.88631 | 1504 ft | 118 kts | 290° |
| 2026-04-15 18:32 | 50.07589 | 19.87459 | 1504 ft | 118 kts | 290° |
| 2026-04-15 18:32 | 50.07895 | 19.86272 | 1503 ft | 118 kts | 290° |
| 2026-04-15 18:32 | 50.08205 | 19.85067 | 1506 ft | 121 kts | 290° |
| 2026-04-15 18:33 | 50.08515 | 19.83867 | 1501 ft | 120 kts | 290° |
| 2026-04-15 18:33 | 50.08825 | 19.82658 | 1503 ft | 119 kts | 290° |
| 2026-04-15 18:33 | 50.09133 | 19.81451 | 1503 ft | 120 kts | 290° |
| 2026-04-15 18:33 | 50.09439 | 19.80246 | 1503 ft | 119 kts | 290° |
| 2026-04-15 18:34 | 50.09745 | 19.79043 | 1504 ft | 120 kts | 290° |
| 2026-04-15 18:34 | 50.10049 | 19.77840 | 1489 ft | 119 kts | 290° |
| 2026-04-15 18:34 | 50.10355 | 19.76630 | 1506 ft | 120 kts | 290° |
| 2026-04-15 18:34 | 50.10659 | 19.75424 | 1500 ft | 120 kts | 290° |
| 2026-04-15 18:35 | 50.10961 | 19.74210 | 1502 ft | 120 kts | 290° |
| 2026-04-15 18:35 | 50.11263 | 19.72999 | 1501 ft | 120 kts | 290° |
| 2026-04-15 18:35 | 50.11567 | 19.71790 | 1502 ft | 120 kts | 290° |
| 2026-04-15 18:35 | 50.11873 | 19.70581 | 1502 ft | 119 kts | 290° |
| 2026-04-15 18:36 | 50.12178 | 19.69383 | 1502 ft | 119 kts | 290° |
| 2026-04-15 18:36 | 50.12486 | 19.68178 | 1494 ft | 120 kts | 290° |
| 2026-04-15 18:36 | 50.12795 | 19.66968 | 1492 ft | 119 kts | 290° |
| 2026-04-15 18:36 | 50.13048 | 19.65759 | 1471 ft | 113 kts | 282° |
| 2026-04-15 18:37 | 50.13104 | 19.64689 | 1407 ft | 84 kts | 268° |
| 2026-04-15 18:37 | 50.13189 | 19.63922 | 1322 ft | 60 kts | 322° |
| 2026-04-15 18:37 | 50.13449 | 19.63868 | 1270 ft | 31 kts | 57° |
| 2026-04-15 18:37 | 50.13376 | 19.64083 | 1166 ft | 25 kts | 195° |
| 2026-04-15 18:38 | 50.13325 | 19.63959 | 1077 ft | 11 kts | 265° |
| 2026-04-15 18:38 | 50.13315 | 19.63873 | 892 ft | 1 kts | 267° |
| 2026-04-15 18:38 | 50.13315 | 19.63861 | 869 ft | 0 kts | 268° |
| 2026-04-15 18:42 | 50.13325 | 19.63926 | 950 ft | 12 kts | 268° |
| 2026-04-15 18:43 | 50.13338 | 19.64099 | 1120 ft | 21 kts | 268° |
| 2026-04-15 18:43 | 50.13348 | 19.64125 | 1243 ft | 32 kts | 267° |
| 2026-04-15 18:43 | 50.13154 | 19.63627 | 1323 ft | 75 kts | 202° |
| 2026-04-15 18:43 | 50.12655 | 19.64011 | 1372 ft | 98 kts | 118° |
| 2026-04-15 18:44 | 50.12503 | 19.65101 | 1376 ft | 106 kts | 109° |
| 2026-04-15 18:44 | 50.12317 | 19.66209 | 1393 ft | 109 kts | 109° |
| 2026-04-15 18:44 | 50.12080 | 19.67381 | 1375 ft | 119 kts | 110° |
| 2026-04-15 18:44 | 50.11809 | 19.68581 | 1400 ft | 116 kts | 111° |
| 2026-04-15 18:45 | 50.11533 | 19.69778 | 1387 ft | 122 kts | 111° |
| 2026-04-15 18:45 | 50.11238 | 19.71034 | 1399 ft | 123 kts | 111° |
| 2026-04-15 18:45 | 50.10946 | 19.72289 | 1381 ft | 127 kts | 111° |
| 2026-04-15 18:45 | 50.10640 | 19.73577 | 1402 ft | 126 kts | 111° |
| 2026-04-15 18:46 | 50.10392 | 19.74823 | 1443 ft | 110 kts | 103° |
| 2026-04-15 18:46 | 50.10331 | 19.76029 | 1411 ft | 116 kts | 88° |
| 2026-04-15 18:46 | 50.10396 | 19.77266 | 1422 ft | 111 kts | 85° |
| 2026-04-15 18:46 | 50.10474 | 19.78334 | 1433 ft | 90 kts | 83° |
| 2026-04-15 18:47 | 50.10792 | 19.79156 | 1416 ft | 92 kts | 41° |
| 2026-04-15 18:47 | 50.11361 | 19.79529 | 1412 ft | 90 kts | 357° |
| 2026-04-15 18:47 | 50.11864 | 19.79144 | 1415 ft | 78 kts | 302° |
| 2026-04-15 18:47 | 50.11732 | 19.78367 | 1391 ft | 97 kts | 207° |
| 2026-04-15 18:48 | 50.11082 | 19.78504 | 1401 ft | 104 kts | 143° |
| 2026-04-15 18:48 | 50.10594 | 19.79496 | 1400 ft | 126 kts | 124° |
| 2026-04-15 18:48 | 50.10068 | 19.80497 | 1423 ft | 116 kts | 130° |
| 2026-04-15 18:48 | 50.09686 | 19.81651 | 1417 ft | 123 kts | 112° |
| 2026-04-15 18:49 | 50.09402 | 19.82909 | 1472 ft | 124 kts | 110° |
| 2026-04-15 18:49 | 50.09145 | 19.84165 | 1606 ft | 113 kts | 103° |
| 2026-04-15 18:49 | 50.09046 | 19.85376 | 1675 ft | 118 kts | 98° |
| 2026-04-15 18:49 | 50.08938 | 19.86675 | 1510 ft | 117 kts | 102° |
| 2026-04-15 18:50 | 50.08817 | 19.87841 | 1272 ft | 101 kts | 102° |
| 2026-04-15 18:50 | 50.08707 | 19.88888 | 1189 ft | 93 kts | 102° |
| 2026-04-15 18:50 | 50.08602 | 19.89822 | 1188 ft | 82 kts | 95° |
| 2026-04-15 18:50 | 50.08651 | 19.90684 | 1183 ft | 78 kts | 85° |
| 2026-04-15 18:51 | 50.08716 | 19.91500 | 1190 ft | 74 kts | 82° |
| 2026-04-15 18:51 | 50.08805 | 19.92232 | 1197 ft | 62 kts | 78° |
| 2026-04-15 18:51 | 50.08960 | 19.92832 | 1106 ft | 57 kts | 69° |
| 2026-04-15 18:51 | 50.09073 | 19.93294 | 999 ft | 36 kts | 81° |
| 2026-04-15 18:52 | 50.09102 | 19.93569 | 882 ft | 9 kts | 79° |
| 2026-04-15 18:52 | 50.09111 | 19.93638 | 832 ft | 7 kts | 81° |
| 2026-04-15 18:52 | 50.09112 | 19.93660 | 803 ft | 1 kts | 74° |
| 2026-04-15 18:56 | 50.09114 | 19.93657 | 806 ft | 3 kts | 98° |
| 2026-04-15 18:57 | 50.09116 | 19.93509 | 1021 ft | 11 kts | 96° |
| 2026-04-15 18:57 | 50.08946 | 19.93928 | 1117 ft | 65 kts | 130° |
| 2026-04-15 18:57 | 50.08619 | 19.94517 | 1225 ft | 81 kts | 133° |
| 2026-04-15 18:57 | 50.08228 | 19.95252 | 1236 ft | 92 kts | 130° |
| 2026-04-15 18:58 | 50.07829 | 19.96086 | 1222 ft | 100 kts | 127° |
| 2026-04-15 18:58 | 50.07565 | 19.96695 | 1215 ft | 104 kts | 125° |
| 2026-04-15 18:58 | 50.07064 | 19.98017 | 1159 ft | 110 kts | 121° |
| 2026-04-15 18:58 | 50.06711 | 19.99076 | 1114 ft | 109 kts | 119° |
| 2026-04-15 18:59 | 50.06330 | 20.00075 | 1144 ft | 104 kts | 125° |
| 2026-04-15 18:59 | 50.05942 | 20.00985 | 1222 ft | 98 kts | 128° |
| 2026-04-15 18:59 | 50.05540 | 20.01839 | 1270 ft | 98 kts | 130° |
| 2026-04-15 18:59 | 50.05111 | 20.02665 | 1314 ft | 98 kts | 133° |
| 2026-04-15 19:00 | 50.04815 | 20.03193 | 1348 ft | 98 kts | 134° |
| 2026-04-15 19:00 | 50.04343 | 20.03974 | 1387 ft | 98 kts | 136° |
| 2026-04-15 19:00 | 50.03875 | 20.04742 | 1411 ft | 99 kts | 132° |
| 2026-04-15 19:00 | 50.03467 | 20.05631 | 1377 ft | 105 kts | 127° |
| 2026-04-15 19:01 | 50.03051 | 20.06572 | 1146 ft | 97 kts | 129° |
| 2026-04-15 19:01 | 50.02767 | 20.07167 | 939 ft | 39 kts | 153° |
| 2026-04-15 19:01 | 50.02558 | 20.07330 | 869 ft | 34 kts | 166° |
| 2026-04-15 19:01 | 50.02381 | 20.07306 | 773 ft | 18 kts | 244° |
| 2026-04-15 19:02 | 50.02313 | 20.07127 | 700 ft | 22 kts | 244° |
| 2026-04-15 19:02 | 50.02270 | 20.06990 | 671 ft | 7 kts | 192° |
| 2026-04-15 19:02 | 50.02237 | 20.06995 | 655 ft | 4 kts | 155° |